sensor_id;sensor_type;location;lat;lon;timestamp;temperature;humidity
65291;SHT30;51893;59.754;10.110;2023-03-23T00:01:18;1.51;87.07
65291;SHT30;51893;59.754;10.110;2023-03-23T00:03:49;1.56;87.25
65291;SHT30;51893;59.754;10.110;2023-03-23T00:06:18;1.70;87.18
65291;SHT30;51893;59.754;10.110;2023-03-23T00:08:47;1.80;86.89
65291;SHT30;51893;59.754;10.110;2023-03-23T00:11:23;1.76;86.53
65291;SHT30;51893;59.754;10.110;2023-03-23T00:13:55;1.68;86.31
65291;SHT30;51893;59.754;10.110;2023-03-23T00:16:31;1.63;86.40
65291;SHT30;51893;59.754;10.110;2023-03-23T00:19:03;1.65;86.70
65291;SHT30;51893;59.754;10.110;2023-03-23T00:21:40;1.61;86.85
65291;SHT30;51893;59.754;10.110;2023-03-23T00:24:10;1.64;87.04
65291;SHT30;51893;59.754;10.110;2023-03-23T00:26:46;1.63;87.12
65291;SHT30;51893;59.754;10.110;2023-03-23T00:29:16;1.64;87.30
65291;SHT30;51893;59.754;10.110;2023-03-23T00:31:51;1.64;87.37
65291;SHT30;51893;59.754;10.110;2023-03-23T00:34:19;1.54;87.41
65291;SHT30;51893;59.754;10.110;2023-03-23T00:36:54;1.49;87.41
65291;SHT30;51893;59.754;10.110;2023-03-23T00:39:23;1.47;87.51
65291;SHT30;51893;59.754;10.110;2023-03-23T00:41:53;1.47;87.62
65291;SHT30;51893;59.754;10.110;2023-03-23T00:44:28;1.51;87.61
65291;SHT30;51893;59.754;10.110;2023-03-23T00:46:59;1.54;87.45
65291;SHT30;51893;59.754;10.110;2023-03-23T00:49:27;1.52;87.30
65291;SHT30;51893;59.754;10.110;2023-03-23T00:51:54;1.49;87.18
65291;SHT30;51893;59.754;10.110;2023-03-23T00:54:25;1.41;87.29
65291;SHT30;51893;59.754;10.110;2023-03-23T00:56:52;1.39;87.67
65291;SHT30;51893;59.754;10.110;2023-03-23T00:59:20;1.44;87.88
65291;SHT30;51893;59.754;10.110;2023-03-23T01:01:49;1.38;87.82
65291;SHT30;51893;59.754;10.110;2023-03-23T01:04:16;1.39;87.97
65291;SHT30;51893;59.754;10.110;2023-03-23T01:06:44;1.44;87.92
65291;SHT30;51893;59.754;10.110;2023-03-23T01:09:17;1.43;87.79
65291;SHT30;51893;59.754;10.110;2023-03-23T01:11:48;1.44;87.56
65291;SHT30;51893;59.754;10.110;2023-03-23T01:14:18;1.42;87.44
65291;SHT30;51893;59.754;10.110;2023-03-23T01:16:46;1.44;87.35
65291;SHT30;51893;59.754;10.110;2023-03-23T01:19:13;1.46;87.29
65291;SHT30;51893;59.754;10.110;2023-03-23T01:21:43;1.42;87.31
65291;SHT30;51893;59.754;10.110;2023-03-23T01:24:10;1.43;87.26
65291;SHT30;51893;59.754;10.110;2023-03-23T01:26:38;1.44;87.10
65291;SHT30;51893;59.754;10.110;2023-03-23T01:29:04;1.41;86.99
65291;SHT30;51893;59.754;10.110;2023-03-23T01:31:34;1.38;86.95
65291;SHT30;51893;59.754;10.110;2023-03-23T01:34:02;1.41;86.97
65291;SHT30;51893;59.754;10.110;2023-03-23T01:36:31;1.40;86.97
65291;SHT30;51893;59.754;10.110;2023-03-23T01:38:59;1.25;86.81
65291;SHT30;51893;59.754;10.110;2023-03-23T01:41:30;1.20;86.88
65291;SHT30;51893;59.754;10.110;2023-03-23T01:44:06;1.21;86.93
65291;SHT30;51893;59.754;10.110;2023-03-23T01:46:54;1.25;87.14
65291;SHT30;51893;59.754;10.110;2023-03-23T01:49:33;1.35;87.27
65291;SHT30;51893;59.754;10.110;2023-03-23T01:52:12;1.47;87.40
65291;SHT30;51893;59.754;10.110;2023-03-23T01:54:53;1.58;87.44
65291;SHT30;51893;59.754;10.110;2023-03-23T01:57:24;1.63;87.53
65291;SHT30;51893;59.754;10.110;2023-03-23T01:59:53;1.75;87.80
65291;SHT30;51893;59.754;10.110;2023-03-23T02:02:25;1.83;87.93
65291;SHT30;51893;59.754;10.110;2023-03-23T02:04:55;1.93;88.05
65291;SHT30;51893;59.754;10.110;2023-03-23T02:07:29;2.05;88.10
65291;SHT30;51893;59.754;10.110;2023-03-23T02:09:59;2.12;87.94
65291;SHT30;51893;59.754;10.110;2023-03-23T02:12:27;2.19;87.83
65291;SHT30;51893;59.754;10.110;2023-03-23T02:14:55;2.24;87.71
65291;SHT30;51893;59.754;10.110;2023-03-23T02:17:24;2.32;87.68
65291;SHT30;51893;59.754;10.110;2023-03-23T02:20:13;2.34;87.52
65291;SHT30;51893;59.754;10.110;2023-03-23T02:26:03;2.31;87.63
65291;SHT30;51893;59.754;10.110;2023-03-23T02:34:45;2.34;87.90
65291;SHT30;51893;59.754;10.110;2023-03-23T02:37:40;2.42;87.90
65291;SHT30;51893;59.754;10.110;2023-03-23T02:40:24;2.45;87.76
65291;SHT30;51893;59.754;10.110;2023-03-23T02:43:01;2.45;87.72
65291;SHT30;51893;59.754;10.110;2023-03-23T02:45:35;2.45;87.67
65291;SHT30;51893;59.754;10.110;2023-03-23T02:48:05;2.49;87.64
65291;SHT30;51893;59.754;10.110;2023-03-23T02:50:34;2.51;87.72
65291;SHT30;51893;59.754;10.110;2023-03-23T02:53:07;2.52;87.63
65291;SHT30;51893;59.754;10.110;2023-03-23T02:55:39;2.48;87.41
65291;SHT30;51893;59.754;10.110;2023-03-23T02:58:14;2.46;87.45
65291;SHT30;51893;59.754;10.110;2023-03-23T03:00:45;2.45;87.43
65291;SHT30;51893;59.754;10.110;2023-03-23T03:03:16;2.42;87.57
65291;SHT30;51893;59.754;10.110;2023-03-23T03:11:59;2.39;87.72
65291;SHT30;51893;59.754;10.110;2023-03-23T03:14:41;2.30;87.66
65291;SHT30;51893;59.754;10.110;2023-03-23T03:17:23;2.28;87.87
65291;SHT30;51893;59.754;10.110;2023-03-23T03:19:58;2.38;88.11
65291;SHT30;51893;59.754;10.110;2023-03-23T03:22:34;2.45;88.00
65291;SHT30;51893;59.754;10.110;2023-03-23T03:25:05;2.51;88.00
65291;SHT30;51893;59.754;10.110;2023-03-23T03:27:34;2.55;87.91
65291;SHT30;51893;59.754;10.110;2023-03-23T03:30:03;2.64;87.75
65291;SHT30;51893;59.754;10.110;2023-03-23T03:32:41;2.71;87.59
65291;SHT30;51893;59.754;10.110;2023-03-23T03:35:15;2.80;87.48
65291;SHT30;51893;59.754;10.110;2023-03-23T03:37:42;2.84;87.28
65291;SHT30;51893;59.754;10.110;2023-03-23T03:40:16;2.89;87.25
65291;SHT30;51893;59.754;10.110;2023-03-23T03:42:46;2.90;87.20
65291;SHT30;51893;59.754;10.110;2023-03-23T03:45:15;2.93;87.30
65291;SHT30;51893;59.754;10.110;2023-03-23T03:47:47;2.91;87.25
65291;SHT30;51893;59.754;10.110;2023-03-23T03:50:13;2.83;87.22
65291;SHT30;51893;59.754;10.110;2023-03-23T03:52:43;2.78;87.29
65291;SHT30;51893;59.754;10.110;2023-03-23T03:55:10;2.76;87.36
65291;SHT30;51893;59.754;10.110;2023-03-23T03:57:38;2.81;87.48
65291;SHT30;51893;59.754;10.110;2023-03-23T04:00:06;2.84;87.43
65291;SHT30;51893;59.754;10.110;2023-03-23T04:02:42;2.88;87.45
65291;SHT30;51893;59.754;10.110;2023-03-23T04:05:17;2.88;87.47
65291;SHT30;51893;59.754;10.110;2023-03-23T04:07:45;2.90;87.45
65291;SHT30;51893;59.754;10.110;2023-03-23T04:10:16;2.91;87.50
65291;SHT30;51893;59.754;10.110;2023-03-23T04:12:48;2.93;87.45
65291;SHT30;51893;59.754;10.110;2023-03-23T04:15:16;2.91;87.26
65291;SHT30;51893;59.754;10.110;2023-03-23T04:17:43;2.87;87.17
65291;SHT30;51893;59.754;10.110;2023-03-23T04:20:10;2.86;87.10
65291;SHT30;51893;59.754;10.110;2023-03-23T04:22:44;2.90;87.19
65291;SHT30;51893;59.754;10.110;2023-03-23T04:25:16;2.95;87.10
65291;SHT30;51893;59.754;10.110;2023-03-23T04:27:47;2.95;86.99
65291;SHT30;51893;59.754;10.110;2023-03-23T04:30:20;2.95;86.89
65291;SHT30;51893;59.754;10.110;2023-03-23T04:32:50;2.95;86.78
65291;SHT30;51893;59.754;10.110;2023-03-23T04:35:24;2.93;86.77
65291;SHT30;51893;59.754;10.110;2023-03-23T04:37:53;2.93;86.69
65291;SHT30;51893;59.754;10.110;2023-03-23T04:40:20;2.91;86.67
65291;SHT30;51893;59.754;10.110;2023-03-23T04:42:49;2.89;86.59
65291;SHT30;51893;59.754;10.110;2023-03-23T04:45:19;2.89;86.51
65291;SHT30;51893;59.754;10.110;2023-03-23T04:47:49;2.86;86.28
65291;SHT30;51893;59.754;10.110;2023-03-23T04:50:26;2.83;86.24
65291;SHT30;51893;59.754;10.110;2023-03-23T04:53:00;2.83;86.31
65291;SHT30;51893;59.754;10.110;2023-03-23T04:55:31;2.78;86.06
65291;SHT30;51893;59.754;10.110;2023-03-23T04:58:06;2.66;85.93
65291;SHT30;51893;59.754;10.110;2023-03-23T05:00:40;2.51;85.87
65291;SHT30;51893;59.754;10.110;2023-03-23T05:03:19;2.44;85.99
65291;SHT30;51893;59.754;10.110;2023-03-23T05:05:46;2.44;86.01
65291;SHT30;51893;59.754;10.110;2023-03-23T05:08:19;2.32;85.73
65291;SHT30;51893;59.754;10.110;2023-03-23T05:10:52;2.23;85.92
65291;SHT30;51893;59.754;10.110;2023-03-23T05:13:21;2.21;86.00
65291;SHT30;51893;59.754;10.110;2023-03-23T05:15:48;2.16;86.12
65291;SHT30;51893;59.754;10.110;2023-03-23T05:18:15;2.14;86.34
65291;SHT30;51893;59.754;10.110;2023-03-23T05:20:43;2.15;86.65
65291;SHT30;51893;59.754;10.110;2023-03-23T05:23:12;2.22;86.88
65291;SHT30;51893;59.754;10.110;2023-03-23T05:25:39;2.28;86.98
65291;SHT30;51893;59.754;10.110;2023-03-23T05:28:08;2.24;86.90
65291;SHT30;51893;59.754;10.110;2023-03-23T05:30:38;2.14;87.03
65291;SHT30;51893;59.754;10.110;2023-03-23T05:33:06;2.13;87.10
65291;SHT30;51893;59.754;10.110;2023-03-23T05:35:33;2.20;87.20
65291;SHT30;51893;59.754;10.110;2023-03-23T05:38:00;2.32;87.48
65291;SHT30;51893;59.754;10.110;2023-03-23T05:40:28;2.40;87.48
65291;SHT30;51893;59.754;10.110;2023-03-23T05:42:55;2.41;87.31
65291;SHT30;51893;59.754;10.110;2023-03-23T05:45:25;2.38;87.18
65291;SHT30;51893;59.754;10.110;2023-03-23T05:47:53;2.41;87.21
65291;SHT30;51893;59.754;10.110;2023-03-23T05:50:20;2.45;87.20
65291;SHT30;51893;59.754;10.110;2023-03-23T05:52:47;2.49;87.19
65291;SHT30;51893;59.754;10.110;2023-03-23T05:55:14;2.54;87.32
65291;SHT30;51893;59.754;10.110;2023-03-23T05:57:41;2.65;87.58
65291;SHT30;51893;59.754;10.110;2023-03-23T06:00:09;2.73;87.63
65291;SHT30;51893;59.754;10.110;2023-03-23T06:02:47;2.78;87.67
65291;SHT30;51893;59.754;10.110;2023-03-23T06:05:15;2.84;87.79
65291;SHT30;51893;59.754;10.110;2023-03-23T06:07:43;2.89;87.77
65291;SHT30;51893;59.754;10.110;2023-03-23T06:10:10;2.93;87.65
65291;SHT30;51893;59.754;10.110;2023-03-23T06:12:38;2.96;87.61
65291;SHT30;51893;59.754;10.110;2023-03-23T06:15:07;2.99;87.60
65291;SHT30;51893;59.754;10.110;2023-03-23T06:17:35;3.05;87.65
65291;SHT30;51893;59.754;10.110;2023-03-23T06:20:04;3.12;87.61
65291;SHT30;51893;59.754;10.110;2023-03-23T06:22:36;3.13;87.55
65291;SHT30;51893;59.754;10.110;2023-03-23T06:25:05;3.19;87.64
65291;SHT30;51893;59.754;10.110;2023-03-23T06:27:34;3.29;87.72
65291;SHT30;51893;59.754;10.110;2023-03-23T06:30:02;3.35;87.73
65291;SHT30;51893;59.754;10.110;2023-03-23T06:32:36;3.42;87.85
65291;SHT30;51893;59.754;10.110;2023-03-23T06:35:05;3.50;87.77
65291;SHT30;51893;59.754;10.110;2023-03-23T06:37:36;3.54;87.61
65291;SHT30;51893;59.754;10.110;2023-03-23T06:40:04;3.60;87.57
65291;SHT30;51893;59.754;10.110;2023-03-23T06:42:34;3.64;87.46
65291;SHT30;51893;59.754;10.110;2023-03-23T06:45:04;3.69;87.40
65291;SHT30;51893;59.754;10.110;2023-03-23T06:47:34;3.75;87.38
65291;SHT30;51893;59.754;10.110;2023-03-23T06:50:01;3.79;87.38
65291;SHT30;51893;59.754;10.110;2023-03-23T06:52:28;3.83;87.28
65291;SHT30;51893;59.754;10.110;2023-03-23T06:54:55;3.87;87.24
65291;SHT30;51893;59.754;10.110;2023-03-23T06:57:22;3.90;87.19
65291;SHT30;51893;59.754;10.110;2023-03-23T06:59:49;3.96;87.09
65291;SHT30;51893;59.754;10.110;2023-03-23T07:02:16;4.03;87.10
65291;SHT30;51893;59.754;10.110;2023-03-23T07:04:45;4.11;87.00
65291;SHT30;51893;59.754;10.110;2023-03-23T07:07:12;4.12;86.92
65291;SHT30;51893;59.754;10.110;2023-03-23T07:09:40;4.17;86.84
65291;SHT30;51893;59.754;10.110;2023-03-23T07:12:08;4.18;86.82
65291;SHT30;51893;59.754;10.110;2023-03-23T07:14:36;4.18;86.97
65291;SHT30;51893;59.754;10.110;2023-03-23T07:17:03;4.28;86.98
65291;SHT30;51893;59.754;10.110;2023-03-23T07:19:30;4.34;86.96
65291;SHT30;51893;59.754;10.110;2023-03-23T07:21:58;4.41;86.87
65291;SHT30;51893;59.754;10.110;2023-03-23T07:24:26;4.44;86.72
65291;SHT30;51893;59.754;10.110;2023-03-23T07:26:54;4.49;86.63
65291;SHT30;51893;59.754;10.110;2023-03-23T07:29:22;4.47;86.36
65291;SHT30;51893;59.754;10.110;2023-03-23T07:31:49;4.47;86.22
65291;SHT30;51893;59.754;10.110;2023-03-23T07:34:17;4.51;86.26
65291;SHT30;51893;59.754;10.110;2023-03-23T07:36:45;4.57;86.26
65291;SHT30;51893;59.754;10.110;2023-03-23T07:39:13;4.57;86.27
65291;SHT30;51893;59.754;10.110;2023-03-23T07:41:40;4.59;86.48
65291;SHT30;51893;59.754;10.110;2023-03-23T07:44:06;4.65;86.54
65291;SHT30;51893;59.754;10.110;2023-03-23T07:46:35;4.68;86.43
65291;SHT30;51893;59.754;10.110;2023-03-23T07:49:03;4.74;86.36
65291;SHT30;51893;59.754;10.110;2023-03-23T07:51:32;4.77;86.28
65291;SHT30;51893;59.754;10.110;2023-03-23T07:54:01;4.82;86.13
65291;SHT30;51893;59.754;10.110;2023-03-23T07:56:32;4.86;86.12
65291;SHT30;51893;59.754;10.110;2023-03-23T07:58:58;4.89;86.20
65291;SHT30;51893;59.754;10.110;2023-03-23T08:01:25;4.93;86.15
65291;SHT30;51893;59.754;10.110;2023-03-23T08:03:53;5.01;86.11
65291;SHT30;51893;59.754;10.110;2023-03-23T08:06:23;5.07;85.98
65291;SHT30;51893;59.754;10.110;2023-03-23T08:08:51;5.13;85.85
65291;SHT30;51893;59.754;10.110;2023-03-23T08:11:19;5.18;85.70
65291;SHT30;51893;59.754;10.110;2023-03-23T08:13:49;5.22;85.54
65291;SHT30;51893;59.754;10.110;2023-03-23T08:16:16;5.30;85.63
65291;SHT30;51893;59.754;10.110;2023-03-23T08:18:45;5.34;85.65
65291;SHT30;51893;59.754;10.110;2023-03-23T08:21:13;5.37;85.30
65291;SHT30;51893;59.754;10.110;2023-03-23T08:23:40;5.40;85.27
65291;SHT30;51893;59.754;10.110;2023-03-23T08:26:08;5.47;85.30
65291;SHT30;51893;59.754;10.110;2023-03-23T08:28:36;5.56;85.25
65291;SHT30;51893;59.754;10.110;2023-03-23T08:31:07;5.65;85.32
65291;SHT30;51893;59.754;10.110;2023-03-23T08:33:38;5.72;85.24
65291;SHT30;51893;59.754;10.110;2023-03-23T08:36:08;5.73;85.24
65291;SHT30;51893;59.754;10.110;2023-03-23T08:38:35;5.77;85.28
65291;SHT30;51893;59.754;10.110;2023-03-23T08:41:06;5.76;85.24
65291;SHT30;51893;59.754;10.110;2023-03-23T08:43:36;5.69;85.31
65291;SHT30;51893;59.754;10.110;2023-03-23T08:46:04;5.61;85.30
65291;SHT30;51893;59.754;10.110;2023-03-23T08:48:36;5.61;85.30
65291;SHT30;51893;59.754;10.110;2023-03-23T08:51:05;5.63;85.31
65291;SHT30;51893;59.754;10.110;2023-03-23T08:53:34;5.70;85.28
65291;SHT30;51893;59.754;10.110;2023-03-23T08:56:07;5.73;85.06
65291;SHT30;51893;59.754;10.110;2023-03-23T08:58:40;5.77;84.78
65291;SHT30;51893;59.754;10.110;2023-03-23T09:01:07;5.83;84.69
65291;SHT30;51893;59.754;10.110;2023-03-23T09:03:35;5.89;84.87
65291;SHT30;51893;59.754;10.110;2023-03-23T09:06:07;5.91;84.95
65291;SHT30;51893;59.754;10.110;2023-03-23T09:08:37;5.93;85.15
65291;SHT30;51893;59.754;10.110;2023-03-23T09:11:07;5.93;85.21
65291;SHT30;51893;59.754;10.110;2023-03-23T09:13:36;5.96;85.21
65291;SHT30;51893;59.754;10.110;2023-03-23T09:16:07;5.98;85.18
65291;SHT30;51893;59.754;10.110;2023-03-23T09:18:37;5.99;85.06
65291;SHT30;51893;59.754;10.110;2023-03-23T09:21:07;5.98;85.10
65291;SHT30;51893;59.754;10.110;2023-03-23T09:23:34;5.95;85.18
65291;SHT30;51893;59.754;10.110;2023-03-23T09:26:02;5.95;85.35
65291;SHT30;51893;59.754;10.110;2023-03-23T09:28:30;5.97;85.27
65291;SHT30;51893;59.754;10.110;2023-03-23T09:30:58;5.98;85.40
65291;SHT30;51893;59.754;10.110;2023-03-23T09:33:28;6.01;85.40
65291;SHT30;51893;59.754;10.110;2023-03-23T09:35:59;6.06;85.41
65291;SHT30;51893;59.754;10.110;2023-03-23T09:38:29;6.13;85.40
65291;SHT30;51893;59.754;10.110;2023-03-23T09:47:19;6.26;85.50
65291;SHT30;51893;59.754;10.110;2023-03-23T09:50:12;6.26;85.50
65291;SHT30;51893;59.754;10.110;2023-03-23T09:55:22;6.34;85.54
65291;SHT30;51893;59.754;10.110;2023-03-23T09:57:58;6.35;85.37
65291;SHT30;51893;59.754;10.110;2023-03-23T10:00:59;6.28;85.03
65291;SHT30;51893;59.754;10.110;2023-03-23T10:03:33;6.29;85.19
65291;SHT30;51893;59.754;10.110;2023-03-23T10:06:09;6.31;85.15
65291;SHT30;51893;59.754;10.110;2023-03-23T10:09:17;6.32;85.05
65291;SHT30;51893;59.754;10.110;2023-03-23T10:17:29;6.35;84.98
65291;SHT30;51893;59.754;10.110;2023-03-23T10:23:41;6.26;84.72
65291;SHT30;51893;59.754;10.110;2023-03-23T10:28:52;6.26;84.68
65291;SHT30;51893;59.754;10.110;2023-03-23T10:34:32;6.28;84.87
65291;SHT30;51893;59.754;10.110;2023-03-23T10:37:12;6.33;84.87
65291;SHT30;51893;59.754;10.110;2023-03-23T10:39:48;6.35;85.03
65291;SHT30;51893;59.754;10.110;2023-03-23T10:42:29;6.34;85.00
65291;SHT30;51893;59.754;10.110;2023-03-23T10:47:51;6.34;84.87
65291;SHT30;51893;59.754;10.110;2023-03-23T10:51:03;6.33;84.95
65291;SHT30;51893;59.754;10.110;2023-03-23T10:53:42;6.32;84.86
65291;SHT30;51893;59.754;10.110;2023-03-23T10:56:28;6.35;84.94
65291;SHT30;51893;59.754;10.110;2023-03-23T11:01:51;6.39;84.90
65291;SHT30;51893;59.754;10.110;2023-03-23T11:04:23;6.41;84.86
65291;SHT30;51893;59.754;10.110;2023-03-23T11:06:53;6.38;84.73
65291;SHT30;51893;59.754;10.110;2023-03-23T11:09:35;6.37;84.92
65291;SHT30;51893;59.754;10.110;2023-03-23T11:12:16;6.41;84.93
65291;SHT30;51893;59.754;10.110;2023-03-23T11:14:46;6.42;84.89
65291;SHT30;51893;59.754;10.110;2023-03-23T11:17:26;6.43;84.89
65291;SHT30;51893;59.754;10.110;2023-03-23T11:19:55;6.45;84.83
65291;SHT30;51893;59.754;10.110;2023-03-23T11:22:31;6.41;84.69
65291;SHT30;51893;59.754;10.110;2023-03-23T11:25:00;6.43;84.63
65291;SHT30;51893;59.754;10.110;2023-03-23T11:27:30;6.47;84.67
65291;SHT30;51893;59.754;10.110;2023-03-23T11:30:18;6.43;84.82
65291;SHT30;51893;59.754;10.110;2023-03-23T11:32:59;6.36;85.09
65291;SHT30;51893;59.754;10.110;2023-03-23T11:35:29;6.27;85.37
65291;SHT30;51893;59.754;10.110;2023-03-23T11:37:57;6.18;85.57
65291;SHT30;51893;59.754;10.110;2023-03-23T11:40:27;6.07;85.78
65291;SHT30;51893;59.754;10.110;2023-03-23T11:43:07;6.00;86.14
65291;SHT30;51893;59.754;10.110;2023-03-23T11:45:46;5.97;86.41
65291;SHT30;51893;59.754;10.110;2023-03-23T11:51:19;5.92;86.81
65291;SHT30;51893;59.754;10.110;2023-03-23T11:54:13;5.94;86.98
65291;SHT30;51893;59.754;10.110;2023-03-23T11:57:09;5.99;87.06
65291;SHT30;51893;59.754;10.110;2023-03-23T11:59:40;6.02;87.10
65291;SHT30;51893;59.754;10.110;2023-03-23T12:16:58;6.11;87.59
65291;SHT30;51893;59.754;10.110;2023-03-23T12:19:41;6.16;87.59
65291;SHT30;51893;59.754;10.110;2023-03-23T12:30:59;6.39;87.08
65291;SHT30;51893;59.754;10.110;2023-03-23T12:33:59;6.44;86.88
65291;SHT30;51893;59.754;10.110;2023-03-23T12:36:47;6.46;86.68
65291;SHT30;51893;59.754;10.110;2023-03-23T12:48:15;6.62;86.02
65291;SHT30;51893;59.754;10.110;2023-03-23T12:51:03;6.55;85.82
65291;SHT30;51893;59.754;10.110;2023-03-23T12:53:46;6.53;85.80
65291;SHT30;51893;59.754;10.110;2023-03-23T12:59:41;6.62;85.92
65291;SHT30;51893;59.754;10.110;2023-03-23T13:03:10;6.65;85.90
65291;SHT30;51893;59.754;10.110;2023-03-23T13:05:48;6.67;85.79
65291;SHT30;51893;59.754;10.110;2023-03-23T13:08:41;6.70;85.83
65291;SHT30;51893;59.754;10.110;2023-03-23T13:11:35;6.75;85.97
65291;SHT30;51893;59.754;10.110;2023-03-23T13:14:20;6.78;85.85
65291;SHT30;51893;59.754;10.110;2023-03-23T13:20:39;6.61;86.24
65291;SHT30;51893;59.754;10.110;2023-03-23T13:23:21;6.49;86.42
65291;SHT30;51893;59.754;10.110;2023-03-23T13:28:27;6.38;86.77
65291;SHT30;51893;59.754;10.110;2023-03-23T13:31:02;6.34;86.96
65291;SHT30;51893;59.754;10.110;2023-03-23T13:33:38;6.28;87.15
65291;SHT30;51893;59.754;10.110;2023-03-23T13:36:12;6.28;87.36
65291;SHT30;51893;59.754;10.110;2023-03-23T13:38:52;6.34;87.34
65291;SHT30;51893;59.754;10.110;2023-03-23T13:41:22;6.36;87.43
65291;SHT30;51893;59.754;10.110;2023-03-23T13:43:49;6.35;87.58
65291;SHT30;51893;59.754;10.110;2023-03-23T13:48:45;6.33;87.80
65291;SHT30;51893;59.754;10.110;2023-03-23T13:51:23;6.33;87.83
65291;SHT30;51893;59.754;10.110;2023-03-23T13:54:13;6.36;87.78
65291;SHT30;51893;59.754;10.110;2023-03-23T13:57:00;6.28;87.76
65291;SHT30;51893;59.754;10.110;2023-03-23T13:59:33;6.21;87.91
65291;SHT30;51893;59.754;10.110;2023-03-23T14:02:28;6.15;88.02
65291;SHT30;51893;59.754;10.110;2023-03-23T14:13:49;6.17;88.21
65291;SHT30;51893;59.754;10.110;2023-03-23T14:16:40;6.27;88.09
65291;SHT30;51893;59.754;10.110;2023-03-23T14:21:49;6.38;87.88
65291;SHT30;51893;59.754;10.110;2023-03-23T14:24:23;6.36;87.79
65291;SHT30;51893;59.754;10.110;2023-03-23T14:27:02;6.31;87.59
65291;SHT30;51893;59.754;10.110;2023-03-23T14:29:36;6.34;87.52
65291;SHT30;51893;59.754;10.110;2023-03-23T14:32:05;6.35;87.52
65291;SHT30;51893;59.754;10.110;2023-03-23T14:34:36;6.35;87.61
65291;SHT30;51893;59.754;10.110;2023-03-23T14:37:04;6.40;87.67
65291;SHT30;51893;59.754;10.110;2023-03-23T14:39:36;6.43;87.66
65291;SHT30;51893;59.754;10.110;2023-03-23T14:42:04;6.44;87.82
65291;SHT30;51893;59.754;10.110;2023-03-23T14:44:53;6.43;88.04
65291;SHT30;51893;59.754;10.110;2023-03-23T14:47:25;6.49;88.10
65291;SHT30;51893;59.754;10.110;2023-03-23T14:49:58;6.57;88.07
65291;SHT30;51893;59.754;10.110;2023-03-23T14:52:29;6.66;87.99
65291;SHT30;51893;59.754;10.110;2023-03-23T14:58:07;6.61;88.09
65291;SHT30;51893;59.754;10.110;2023-03-23T15:00:44;6.68;87.94
65291;SHT30;51893;59.754;10.110;2023-03-23T15:03:45;6.70;87.62
65291;SHT30;51893;59.754;10.110;2023-03-23T15:06:55;6.77;87.29
65291;SHT30;51893;59.754;10.110;2023-03-23T15:09:29;6.82;87.13
65291;SHT30;51893;59.754;10.110;2023-03-23T15:11:59;6.89;87.10
65291;SHT30;51893;59.754;10.110;2023-03-23T15:14:33;6.98;86.92
65291;SHT30;51893;59.754;10.110;2023-03-23T15:17:24;6.98;86.87
65291;SHT30;51893;59.754;10.110;2023-03-23T15:19:55;6.95;86.85
65291;SHT30;51893;59.754;10.110;2023-03-23T15:22:26;7.01;87.06
65291;SHT30;51893;59.754;10.110;2023-03-23T15:25:09;7.03;87.17
65291;SHT30;51893;59.754;10.110;2023-03-23T15:28:06;7.00;87.34
65291;SHT30;51893;59.754;10.110;2023-03-23T15:30:47;7.07;87.24
65291;SHT30;51893;59.754;10.110;2023-03-23T15:33:16;7.07;87.21
65291;SHT30;51893;59.754;10.110;2023-03-23T15:35:47;7.05;87.23
65291;SHT30;51893;59.754;10.110;2023-03-23T15:38:23;7.01;87.29
65291;SHT30;51893;59.754;10.110;2023-03-23T15:41:03;6.99;87.40
65291;SHT30;51893;59.754;10.110;2023-03-23T15:43:34;6.92;87.43
65291;SHT30;51893;59.754;10.110;2023-03-23T15:48:48;7.02;87.55
65291;SHT30;51893;59.754;10.110;2023-03-23T15:51:21;7.02;87.15
65291;SHT30;51893;59.754;10.110;2023-03-23T15:53:53;6.95;87.06
65291;SHT30;51893;59.754;10.110;2023-03-23T15:56:22;6.91;87.10
65291;SHT30;51893;59.754;10.110;2023-03-23T15:58:51;6.93;87.27
65291;SHT30;51893;59.754;10.110;2023-03-23T16:01:20;7.00;87.31
65291;SHT30;51893;59.754;10.110;2023-03-23T16:03:56;7.05;87.30
65291;SHT30;51893;59.754;10.110;2023-03-23T16:06:32;7.04;87.29
65291;SHT30;51893;59.754;10.110;2023-03-23T16:09:04;6.94;87.10
65291;SHT30;51893;59.754;10.110;2023-03-23T16:11:34;6.93;87.26
65291;SHT30;51893;59.754;10.110;2023-03-23T16:14:02;6.98;87.30
65291;SHT30;51893;59.754;10.110;2023-03-23T16:16:33;7.00;87.09
65291;SHT30;51893;59.754;10.110;2023-03-23T16:19:07;6.96;86.95
65291;SHT30;51893;59.754;10.110;2023-03-23T16:21:39;6.94;86.93
65291;SHT30;51893;59.754;10.110;2023-03-23T16:24:09;6.98;87.07
65291;SHT30;51893;59.754;10.110;2023-03-23T16:26:38;7.04;87.06
65291;SHT30;51893;59.754;10.110;2023-03-23T16:29:11;7.14;86.91
65291;SHT30;51893;59.754;10.110;2023-03-23T16:32:02;7.27;86.61
65291;SHT30;51893;59.754;10.110;2023-03-23T16:34:30;7.22;86.46
65291;SHT30;51893;59.754;10.110;2023-03-23T16:37:00;7.18;86.56
65291;SHT30;51893;59.754;10.110;2023-03-23T16:39:28;7.15;86.59
65291;SHT30;51893;59.754;10.110;2023-03-23T16:41:56;7.11;86.37
65291;SHT30;51893;59.754;10.110;2023-03-23T16:44:24;7.26;85.65
65291;SHT30;51893;59.754;10.110;2023-03-23T16:46:52;7.40;85.19
65291;SHT30;51893;59.754;10.110;2023-03-23T16:49:20;7.43;85.10
65291;SHT30;51893;59.754;10.110;2023-03-23T16:51:49;7.42;85.10
65291;SHT30;51893;59.754;10.110;2023-03-23T16:54:17;7.39;85.11
65291;SHT30;51893;59.754;10.110;2023-03-23T16:56:45;7.40;85.09
65291;SHT30;51893;59.754;10.110;2023-03-23T16:59:13;7.37;84.89
65291;SHT30;51893;59.754;10.110;2023-03-23T17:01:41;7.24;84.68
65291;SHT30;51893;59.754;10.110;2023-03-23T17:04:12;7.00;84.59
65291;SHT30;51893;59.754;10.110;2023-03-23T17:06:42;6.78;84.90
65291;SHT30;51893;59.754;10.110;2023-03-23T17:09:10;6.56;85.00
65291;SHT30;51893;59.754;10.110;2023-03-23T17:11:38;6.48;85.52
65291;SHT30;51893;59.754;10.110;2023-03-23T17:14:06;6.45;85.81
65291;SHT30;51893;59.754;10.110;2023-03-23T17:16:36;6.40;85.75
65291;SHT30;51893;59.754;10.110;2023-03-23T17:19:05;6.38;85.70
65291;SHT30;51893;59.754;10.110;2023-03-23T17:21:35;6.35;85.52
65291;SHT30;51893;59.754;10.110;2023-03-23T17:24:07;6.23;85.30
65291;SHT30;51893;59.754;10.110;2023-03-23T17:26:36;6.14;85.58
65291;SHT30;51893;59.754;10.110;2023-03-23T17:29:04;6.17;85.59
65291;SHT30;51893;59.754;10.110;2023-03-23T17:31:33;6.22;85.28
65291;SHT30;51893;59.754;10.110;2023-03-23T17:34:02;6.12;85.07
65291;SHT30;51893;59.754;10.110;2023-03-23T17:36:31;6.06;85.28
65291;SHT30;51893;59.754;10.110;2023-03-23T17:38:59;6.07;85.25
65291;SHT30;51893;59.754;10.110;2023-03-23T17:41:28;6.07;85.29
65291;SHT30;51893;59.754;10.110;2023-03-23T17:43:56;6.06;85.48
65291;SHT30;51893;59.754;10.110;2023-03-23T17:46:26;6.07;85.46
65291;SHT30;51893;59.754;10.110;2023-03-23T17:48:55;5.97;85.39
65291;SHT30;51893;59.754;10.110;2023-03-23T17:51:23;5.76;85.40
65291;SHT30;51893;59.754;10.110;2023-03-23T17:53:53;5.55;85.39